createdAt,value
2022-12-09T00:01:18.835Z,2.72
2022-12-09T00:03:47.111Z,2.92
2022-12-09T00:06:20.370Z,3.30
2022-12-09T00:08:49.124Z,2.70
2022-12-09T00:11:17.162Z,3.03
2022-12-09T00:13:44.909Z,2.60
2022-12-09T00:16:14.361Z,2.60
2022-12-09T00:18:42.794Z,2.38
2022-12-09T00:21:20.485Z,2.78
2022-12-09T00:23:49.499Z,2.70
2022-12-09T00:26:18.347Z,2.50
2022-12-09T00:28:46.626Z,2.75
2022-12-09T00:31:16.434Z,2.55
2022-12-09T00:33:46.844Z,2.33
2022-12-09T00:36:17.706Z,2.47
2022-12-09T00:38:45.759Z,2.70
2022-12-09T00:41:14.218Z,2.50
2022-12-09T00:43:42.837Z,2.25
2022-12-09T00:46:11.918Z,2.33
2022-12-09T00:48:40.272Z,2.47
2022-12-09T00:51:09.349Z,2.22
2022-12-09T00:53:36.845Z,2.53
2022-12-09T00:56:04.440Z,2.22
2022-12-09T00:58:32.269Z,2.10
2022-12-09T01:00:59.815Z,2.40
2022-12-09T01:03:27.618Z,2.15
2022-12-09T01:05:55.890Z,1.90
2022-12-09T01:08:23.514Z,2.60
2022-12-09T01:10:51.367Z,2.35
2022-12-09T01:13:18.845Z,1.98
2022-12-09T01:15:48.302Z,2.10
2022-12-09T01:18:16.919Z,1.90
2022-12-09T01:20:44.398Z,1.75
2022-12-09T01:23:11.987Z,2.10
2022-12-09T01:25:39.538Z,2.20
2022-12-09T01:28:07.317Z,2.00
2022-12-09T01:30:34.927Z,2.00
2022-12-09T01:33:02.484Z,2.05
2022-12-09T01:35:30.053Z,1.90
2022-12-09T01:37:57.883Z,2.00
2022-12-09T01:40:25.747Z,2.10
2022-12-09T01:42:54.209Z,1.80
2022-12-09T01:45:30.736Z,1.83
2022-12-09T01:48:11.568Z,2.00
2022-12-09T01:50:55.551Z,2.05
2022-12-09T01:53:29.597Z,1.45
2022-12-09T01:56:00.185Z,1.63
2022-12-09T01:58:29.116Z,1.95
2022-12-09T02:00:57.896Z,1.92
2022-12-09T02:03:25.764Z,1.67
2022-12-09T02:05:53.510Z,1.75
2022-12-09T02:08:21.229Z,1.80
2022-12-09T02:11:31.981Z,1.95
2022-12-09T02:14:04.128Z,2.20
2022-12-09T02:16:41.115Z,2.20
2022-12-09T02:19:17.862Z,1.88
2022-12-09T02:21:54.970Z,1.80
2022-12-09T02:24:28.836Z,1.75
2022-12-09T02:27:18.844Z,2.00
2022-12-09T02:30:17.656Z,2.10
2022-12-09T02:33:06.343Z,2.00
2022-12-09T02:35:48.762Z,2.40
2022-12-09T02:38:31.927Z,2.30
2022-12-09T02:41:08.423Z,2.00
2022-12-09T02:43:49.382Z,2.47
2022-12-09T02:46:22.049Z,2.30
2022-12-09T02:48:54.710Z,2.08
2022-12-09T02:51:24.608Z,2.00
2022-12-09T02:53:58.558Z,2.00
2022-12-09T02:56:28.202Z,2.00
2022-12-09T02:58:55.965Z,1.80
2022-12-09T03:02:05.897Z,2.65
2022-12-09T03:04:34.108Z,2.17
2022-12-09T03:07:25.348Z,2.08
2022-12-09T03:10:16.537Z,1.80
2022-12-09T03:12:53.500Z,2.15
2022-12-09T03:15:27.151Z,2.00
2022-12-09T03:17:57.049Z,2.03
2022-12-09T03:20:29.181Z,2.13
2022-12-09T03:23:01.403Z,1.98
2022-12-09T03:25:33.767Z,1.90
2022-12-09T03:28:07.454Z,1.75
2022-12-09T03:30:39.721Z,1.70
2022-12-09T03:33:08.689Z,1.73
2022-12-09T03:35:42.666Z,1.80
2022-12-09T03:38:15.568Z,1.98
2022-12-09T03:40:43.983Z,1.90
2022-12-09T03:43:41.553Z,1.92
2022-12-09T03:46:09.653Z,1.90
2022-12-09T03:48:37.260Z,1.75
2022-12-09T03:51:14.865Z,2.00
2022-12-09T03:53:59.439Z,1.90
2022-12-09T03:56:32.874Z,1.63
2022-12-09T03:59:04.212Z,1.67
2022-12-09T04:01:32.880Z,1.80
2022-12-09T04:04:00.801Z,1.65
2022-12-09T04:06:28.516Z,1.80
2022-12-09T04:09:01.965Z,1.80
2022-12-09T04:11:31.792Z,1.75
2022-12-09T04:13:59.626Z,1.70
2022-12-09T04:16:27.656Z,1.70
2022-12-09T04:18:55.448Z,1.80
2022-12-09T04:21:23.425Z,1.60
2022-12-09T04:23:50.900Z,1.42
2022-12-09T04:26:21.881Z,1.67
2022-12-09T04:28:50.650Z,1.30
2022-12-09T04:31:19.761Z,1.70
2022-12-09T04:33:48.165Z,1.60
2022-12-09T04:36:17.998Z,1.50
2022-12-09T04:38:46.452Z,1.90
2022-12-09T04:41:15.199Z,1.50
2022-12-09T04:43:43.238Z,1.80
2022-12-09T04:46:13.620Z,1.23
2022-12-09T04:48:41.852Z,1.50
2022-12-09T04:51:11.873Z,1.55
2022-12-09T04:53:40.092Z,1.25
2022-12-09T04:56:09.222Z,1.58
2022-12-09T04:58:37.201Z,1.80
2022-12-09T05:01:18.498Z,1.50
2022-12-09T05:03:51.238Z,1.50
2022-12-09T05:06:20.755Z,1.52
2022-12-09T05:08:49.164Z,1.45
2022-12-09T05:11:18.651Z,1.42
2022-12-09T05:13:46.578Z,1.20
2022-12-09T05:16:17.255Z,1.42
2022-12-09T05:18:46.764Z,1.40
2022-12-09T05:21:17.219Z,1.67
2022-12-09T05:23:45.790Z,1.60
2022-12-09T05:26:16.101Z,1.58
2022-12-09T05:28:44.305Z,1.65
2022-12-09T05:31:18.139Z,1.38
2022-12-09T05:33:46.903Z,1.60
2022-12-09T05:36:20.248Z,1.75
2022-12-09T05:38:49.108Z,1.50
2022-12-09T05:41:18.422Z,1.35
2022-12-09T05:43:46.449Z,1.60
2022-12-09T05:46:15.057Z,1.10
2022-12-09T05:48:43.486Z,1.58
2022-12-09T05:51:16.160Z,1.90
2022-12-09T05:53:43.927Z,1.30
2022-12-09T05:56:15.311Z,1.55
2022-12-09T05:58:43.347Z,1.80
2022-12-09T06:01:11.468Z,1.77
2022-12-09T06:03:39.817Z,1.50
2022-12-09T06:06:13.116Z,1.55
2022-12-09T06:08:43.678Z,1.55
2022-12-09T06:11:21.305Z,1.50
2022-12-09T06:13:50.712Z,1.70
2022-12-09T06:16:20.798Z,1.65
2022-12-09T06:18:49.756Z,1.70
2022-12-09T06:21:19.868Z,1.80
2022-12-09T06:23:48.325Z,1.60
2022-12-09T06:26:28.523Z,1.90
2022-12-09T06:28:57.825Z,1.73
2022-12-09T06:31:27.616Z,1.70
2022-12-09T06:33:57.565Z,1.95
2022-12-09T06:36:29.094Z,1.80
2022-12-09T06:39:00.414Z,1.88
2022-12-09T06:41:31.055Z,1.60
2022-12-09T06:44:00.082Z,1.67
2022-12-09T06:46:29.301Z,2.00
2022-12-09T06:48:57.880Z,1.83
2022-12-09T06:51:26.794Z,2.00
2022-12-09T06:53:54.621Z,1.90
2022-12-09T06:56:22.470Z,2.45
2022-12-09T06:58:50.627Z,2.00
2022-12-09T07:01:24.680Z,1.75
2022-12-09T07:03:55.944Z,1.60
2022-12-09T07:06:30.144Z,2.05
2022-12-09T07:09:02.114Z,1.90
2022-12-09T07:11:30.918Z,1.92
2022-12-09T07:13:58.951Z,1.95
2022-12-09T07:16:26.980Z,1.90
2022-12-09T07:18:56.361Z,1.83
2022-12-09T07:21:24.835Z,1.73
2022-12-09T07:23:53.240Z,2.00
2022-12-09T07:26:21.447Z,1.80
2022-12-09T07:28:50.638Z,2.00
2022-12-09T07:31:20.484Z,1.58
2022-12-09T07:33:49.031Z,1.83
2022-12-09T07:36:20.958Z,1.77
2022-12-09T07:39:00.337Z,1.75
2022-12-09T07:41:28.928Z,2.15
2022-12-09T07:43:56.779Z,2.00
2022-12-09T07:46:27.848Z,2.10
2022-12-09T07:51:25.151Z,2.38
2022-12-09T07:53:53.660Z,2.13
2022-12-09T07:56:23.231Z,2.28
2022-12-09T07:58:54.104Z,2.20
2022-12-09T08:01:27.653Z,3.40
2022-12-09T08:03:56.729Z,3.22
2022-12-09T08:06:27.591Z,2.67
2022-12-09T08:11:34.154Z,2.42
2022-12-09T08:14:11.064Z,4.05
2022-12-09T08:16:42.087Z,2.40
2022-12-09T08:21:40.602Z,3.45
2022-12-09T08:24:08.799Z,4.60
2022-12-09T08:26:40.016Z,5.80
2022-12-09T08:29:10.952Z,5.50
2022-12-09T08:31:41.990Z,3.20
2022-12-09T08:34:10.882Z,5.65
2022-12-09T08:36:39.178Z,3.92
2022-12-09T08:39:07.777Z,3.70
2022-12-09T08:41:37.738Z,5.72
2022-12-09T08:44:12.825Z,6.75
2022-12-09T08:46:43.655Z,4.75
2022-12-09T08:49:12.548Z,3.25
2022-12-09T08:51:40.496Z,4.20
2022-12-09T08:54:08.425Z,5.65
2022-12-09T08:56:36.771Z,3.35
2022-12-09T08:59:04.941Z,6.43
2022-12-09T09:01:35.856Z,5.95
2022-12-09T09:04:13.268Z,4.47
2022-12-09T09:06:43.408Z,5.57
2022-12-09T09:09:13.374Z,4.07
2022-12-09T09:11:42.204Z,3.78
2022-12-09T09:14:12.491Z,4.75
2022-12-09T09:16:43.116Z,3.13
2022-12-09T09:19:18.548Z,6.53
2022-12-09T09:21:46.484Z,4.55
2022-12-09T09:24:18.215Z,4.43
2022-12-09T09:26:46.930Z,5.43
2022-12-09T09:29:17.428Z,4.10
2022-12-09T09:31:48.773Z,4.15
2022-12-09T09:34:18.183Z,3.80
2022-12-09T09:36:46.221Z,4.43
2022-12-09T09:39:13.939Z,6.28
2022-12-09T09:42:04.645Z,3.80
2022-12-09T09:44:38.768Z,5.47
2022-12-09T09:47:32.779Z,3.17
2022-12-09T09:50:30.266Z,3.30
2022-12-09T09:52:58.395Z,3.38
2022-12-09T09:55:36.295Z,3.17
2022-12-09T09:58:23.892Z,3.58
2022-12-09T10:01:18.871Z,3.38
2022-12-09T10:04:01.718Z,3.30
2022-12-09T10:07:01.205Z,3.38
2022-12-09T10:09:52.748Z,3.85
2022-12-09T10:12:58.989Z,3.90
2022-12-09T10:15:34.978Z,6.55
2022-12-09T10:18:19.061Z,4.88
2022-12-09T10:20:47.798Z,4.47
2022-12-09T10:23:17.242Z,4.13
2022-12-09T10:26:02.978Z,4.40
2022-12-09T10:28:38.583Z,5.55
2022-12-09T10:31:06.928Z,3.50
2022-12-09T10:33:37.493Z,3.47
2022-12-09T10:36:07.740Z,4.00
2022-12-09T10:38:39.702Z,3.67
2022-12-09T10:41:39.566Z,4.35
2022-12-09T10:44:26.149Z,4.05
2022-12-09T10:47:21.624Z,4.03
2022-12-09T10:49:52.684Z,4.22
2022-12-09T10:52:25.778Z,4.00
2022-12-09T10:54:53.716Z,2.80
2022-12-09T10:57:27.613Z,3.00
2022-12-09T11:00:27.134Z,3.72
2022-12-09T11:02:57.584Z,5.03
2022-12-09T11:05:28.747Z,4.10
2022-12-09T11:07:58.617Z,3.55
2022-12-09T11:10:29.574Z,3.65
2022-12-09T11:15:33.296Z,4.03
2022-12-09T11:18:08.151Z,4.05
2022-12-09T11:20:37.569Z,4.07
2022-12-09T11:23:17.058Z,5.63
2022-12-09T11:25:57.883Z,4.18
2022-12-09T11:28:30.179Z,3.45
2022-12-09T11:31:29.538Z,2.95
2022-12-09T11:34:03.195Z,3.03
2022-12-09T11:36:42.136Z,2.67
2022-12-09T11:39:33.074Z,2.92
2022-12-09T11:42:19.448Z,3.20
2022-12-09T11:44:58.191Z,3.03
2022-12-09T11:48:21.632Z,2.72
2022-12-09T11:50:32.995Z,2.55
2022-12-09T11:53:12.814Z,3.00
2022-12-09T11:56:10.539Z,3.10
2022-12-09T11:58:59.878Z,2.75
2022-12-09T12:01:42.447Z,2.50
2022-12-09T12:04:12.687Z,2.70
2022-12-09T12:06:48.855Z,2.60
2022-12-09T12:09:33.081Z,2.10
2022-12-09T12:12:09.333Z,2.30
2022-12-09T12:14:41.356Z,2.08
2022-12-09T12:17:32.432Z,2.25
2022-12-09T12:19:59.986Z,2.00
2022-12-09T12:22:54.315Z,1.92
2022-12-09T12:25:44.341Z,1.98
2022-12-09T12:28:14.508Z,1.88
2022-12-09T12:30:56.850Z,1.90
2022-12-09T12:36:29.606Z,1.90
2022-12-09T12:39:06.076Z,2.10
2022-12-09T12:41:54.831Z,1.92
2022-12-09T12:45:10.481Z,1.90
2022-12-09T12:47:54.543Z,2.00
2022-12-09T12:50:58.095Z,2.00
2022-12-09T12:53:39.950Z,2.10
2022-12-09T12:56:37.733Z,2.38
2022-12-09T12:59:12.172Z,1.80
2022-12-09T13:01:47.158Z,1.88
2022-12-09T13:04:56.898Z,1.60
2022-12-09T13:07:39.058Z,2.20
2022-12-09T13:10:28.687Z,5.75
2022-12-09T13:12:58.408Z,4.00
2022-12-09T13:15:47.269Z,2.55
2022-12-09T13:18:36.188Z,2.28
2022-12-09T13:21:06.185Z,2.03
2022-12-09T13:23:55.290Z,1.98
2022-12-09T13:26:43.669Z,4.40
2022-12-09T13:29:48.646Z,2.28
2022-12-09T13:32:16.153Z,2.80
2022-12-09T13:34:54.634Z,1.98
2022-12-09T13:37:31.029Z,2.45
2022-12-09T13:39:58.958Z,1.92
2022-12-09T13:42:47.314Z,2.25
2022-12-09T13:45:24.584Z,2.17
2022-12-09T13:47:55.882Z,3.80
2022-12-09T13:50:32.360Z,2.30
2022-12-09T13:53:20.730Z,2.30
2022-12-09T13:56:08.262Z,2.33
2022-12-09T13:59:03.507Z,2.13
2022-12-09T14:01:49.191Z,2.50
2022-12-09T14:04:23.274Z,2.17
2022-12-09T14:07:10.497Z,1.90
2022-12-09T14:09:41.233Z,2.00
2022-12-09T14:12:12.734Z,2.55
2022-12-09T14:14:50.471Z,2.28
2022-12-09T14:17:29.391Z,2.63
2022-12-09T14:20:21.615Z,2.63
2022-12-09T14:23:07.069Z,2.40
2022-12-09T14:25:34.475Z,2.60
2022-12-09T14:28:11.003Z,2.50
2022-12-09T14:30:59.759Z,1.90
2022-12-09T14:33:38.363Z,1.90
2022-12-09T14:36:23.281Z,2.35
2022-12-09T14:39:24.362Z,2.17
2022-12-09T14:42:08.031Z,2.30
2022-12-09T14:45:04.343Z,2.30
2022-12-09T14:47:39.581Z,2.08
2022-12-09T14:50:38.328Z,2.28
2022-12-09T14:53:20.146Z,2.30
2022-12-09T14:55:48.546Z,2.55
2022-12-09T14:58:22.538Z,4.72
2022-12-09T15:01:03.213Z,6.38
2022-12-09T15:03:34.329Z,4.20
2022-12-09T15:06:29.131Z,5.13
2022-12-09T15:08:59.034Z,2.90
2022-12-09T15:11:29.568Z,2.97
2022-12-09T15:14:18.598Z,3.80
2022-12-09T15:16:50.621Z,3.92
2022-12-09T15:19:51.069Z,3.80
2022-12-09T15:22:21.539Z,4.10
2022-12-09T15:24:51.029Z,3.22
2022-12-09T15:27:22.136Z,4.22
2022-12-09T15:32:29.749Z,3.53
2022-12-09T15:35:20.166Z,5.70
2022-12-09T15:37:51.182Z,2.70
2022-12-09T15:40:22.631Z,3.03
2022-12-09T15:42:53.972Z,4.20
2022-12-09T15:45:28.954Z,3.35
2022-12-09T15:48:14.542Z,3.10
2022-12-09T15:50:47.830Z,4.07
2022-12-09T15:53:26.195Z,3.25
2022-12-09T15:56:01.763Z,3.65
2022-12-09T15:58:35.034Z,3.20
2022-12-09T16:01:03.493Z,3.03
2022-12-09T16:03:33.858Z,2.95
2022-12-09T16:06:08.031Z,3.22
2022-12-09T16:08:40.806Z,2.80
2022-12-09T16:11:10.134Z,3.05
2022-12-09T16:13:58.349Z,2.35
2022-12-09T16:16:48.116Z,2.78
2022-12-09T16:19:33.936Z,3.92
2022-12-09T16:22:05.804Z,2.80
2022-12-09T16:24:58.058Z,3.20
2022-12-09T16:27:25.955Z,2.72
2022-12-09T16:30:01.642Z,3.33
2022-12-09T16:32:40.077Z,2.97
2022-12-09T16:35:24.026Z,3.00
2022-12-09T16:37:57.631Z,2.80
2022-12-09T16:40:25.105Z,3.00
2022-12-09T16:43:17.915Z,2.70
2022-12-09T16:45:56.961Z,3.58
2022-12-09T16:48:26.228Z,3.08
2022-12-09T16:51:13.177Z,3.00
2022-12-09T16:53:48.561Z,2.80
2022-12-09T16:56:21.607Z,2.90
2022-12-09T16:58:49.577Z,3.28
2022-12-09T17:01:18.776Z,3.20
2022-12-09T17:03:53.989Z,2.85
2022-12-09T17:06:24.118Z,3.15
2022-12-09T17:08:51.669Z,3.03
2022-12-09T17:11:21.702Z,2.80
2022-12-09T17:13:52.691Z,2.88
2022-12-09T17:18:51.991Z,2.60
2022-12-09T17:21:20.079Z,3.00
2022-12-09T17:23:47.797Z,2.80
2022-12-09T17:26:18.109Z,2.83
2022-12-09T17:28:46.395Z,2.70
2022-12-09T17:31:23.073Z,2.85
2022-12-09T17:33:51.530Z,2.50
2022-12-09T17:36:19.693Z,2.88
2022-12-09T17:38:47.583Z,2.60
2022-12-09T17:41:19.324Z,3.10
2022-12-09T17:43:47.232Z,3.42
2022-12-09T17:46:15.276Z,2.90
2022-12-09T17:48:42.854Z,2.92
2022-12-09T17:51:18.093Z,2.60
2022-12-09T17:53:46.689Z,3.00
2022-12-09T17:56:16.829Z,2.80
2022-12-09T17:58:44.858Z,2.90
2022-12-09T18:01:23.291Z,2.42
2022-12-09T18:04:02.574Z,2.70
2022-12-09T18:06:34.787Z,2.65
2022-12-09T18:09:08.383Z,2.90
2022-12-09T18:11:36.511Z,2.42
2022-12-09T18:14:04.886Z,2.72
2022-12-09T18:16:32.846Z,2.92
2022-12-09T18:19:12.774Z,2.95
2022-12-09T18:21:40.336Z,2.70
2022-12-09T18:24:08.453Z,2.58
2022-12-09T18:26:41.324Z,2.75
2022-12-09T18:29:11.147Z,3.05
2022-12-09T18:31:38.817Z,2.80
2022-12-09T18:34:06.546Z,2.50
2022-12-09T18:36:33.983Z,2.95
2022-12-09T18:39:01.566Z,3.05
2022-12-09T18:41:30.827Z,2.90
2022-12-09T18:44:01.624Z,3.10
2022-12-09T18:46:38.239Z,3.00
2022-12-09T18:49:08.845Z,3.13
2022-12-09T18:51:37.018Z,3.08
2022-12-09T18:54:05.354Z,2.95
2022-12-09T18:56:33.486Z,3.28
2022-12-09T18:59:06.857Z,3.10
2022-12-09T19:01:39.621Z,3.55
2022-12-09T19:04:12.945Z,3.00
2022-12-09T19:06:47.017Z,3.63
2022-12-09T19:11:46.673Z,3.40
2022-12-09T19:14:15.631Z,3.22
2022-12-09T19:16:45.076Z,3.42
2022-12-09T19:19:16.204Z,3.42
2022-12-09T19:21:44.530Z,3.67
2022-12-09T19:24:19.475Z,3.10
2022-12-09T19:26:48.750Z,3.40
2022-12-09T19:29:17.873Z,3.33
2022-12-09T19:31:47.798Z,3.65
2022-12-09T19:34:21.978Z,3.50
2022-12-09T19:36:53.328Z,3.28
2022-12-09T19:39:24.009Z,3.53
2022-12-09T19:41:52.023Z,3.58
2022-12-09T19:44:44.230Z,3.63
2022-12-09T19:47:10.371Z,3.78
2022-12-09T19:49:40.545Z,3.47
2022-12-09T19:52:08.051Z,3.47
2022-12-09T19:54:35.595Z,3.83
2022-12-09T19:57:03.078Z,3.65
2022-12-09T19:59:31.421Z,3.22
2022-12-09T20:01:59.613Z,3.80
2022-12-09T20:07:21.233Z,3.60
2022-12-09T20:09:49.187Z,4.25
2022-12-09T20:12:16.939Z,3.60
2022-12-09T20:14:45.133Z,3.63
2022-12-09T20:17:12.704Z,3.63
2022-12-09T20:19:41.368Z,4.30
2022-12-09T20:22:13.263Z,3.40
2022-12-09T20:27:08.194Z,3.58
2022-12-09T20:29:38.230Z,3.67
2022-12-09T20:32:08.474Z,4.18
2022-12-09T20:34:36.249Z,3.90
2022-12-09T20:37:04.649Z,3.72
2022-12-09T20:39:32.283Z,3.50
2022-12-09T20:41:59.867Z,3.38
2022-12-09T20:44:27.353Z,3.95
2022-12-09T20:46:54.939Z,3.70
2022-12-09T20:49:26.866Z,3.65
2022-12-09T20:51:55.529Z,3.35
2022-12-09T20:56:54.835Z,3.70
2022-12-09T20:59:22.330Z,3.67
2022-12-09T21:01:49.850Z,3.33
2022-12-09T21:04:18.313Z,3.70
2022-12-09T21:06:46.007Z,3.80
2022-12-09T21:09:18.857Z,4.47
2022-12-09T21:11:48.212Z,4.15
2022-12-09T21:14:18.814Z,3.75
2022-12-09T21:16:47.828Z,4.90
2022-12-09T21:19:17.251Z,3.85
2022-12-09T21:21:47.118Z,4.30
2022-12-09T21:24:16.034Z,3.50
2022-12-09T21:26:43.785Z,3.30
2022-12-09T21:29:13.742Z,3.47
2022-12-09T21:31:42.401Z,3.83
2022-12-09T21:34:10.753Z,3.58
2022-12-09T21:36:41.111Z,3.40
2022-12-09T21:39:10.755Z,3.72
2022-12-09T21:41:38.456Z,3.22
2022-12-09T21:44:08.080Z,3.00
2022-12-09T21:46:37.919Z,3.30
2022-12-09T21:49:06.857Z,3.50
2022-12-09T21:51:35.416Z,3.60
2022-12-09T21:54:03.632Z,3.28
2022-12-09T21:56:33.323Z,3.33
2022-12-09T21:59:01.474Z,3.25
2022-12-09T22:01:31.506Z,3.15
2022-12-09T22:04:01.060Z,3.45
2022-12-09T22:06:29.786Z,3.22
2022-12-09T22:08:59.927Z,3.35
2022-12-09T22:11:29.987Z,3.20
2022-12-09T22:13:59.754Z,3.90
2022-12-09T22:16:31.120Z,3.03
2022-12-09T22:19:00.161Z,3.40
2022-12-09T22:21:29.826Z,2.72
2022-12-09T22:24:01.101Z,3.22
2022-12-09T22:26:29.259Z,3.10
2022-12-09T22:28:59.589Z,3.28
2022-12-09T22:31:32.769Z,3.38
2022-12-09T22:34:05.442Z,3.22
2022-12-09T22:36:34.717Z,3.00
2022-12-09T22:39:02.340Z,3.35
2022-12-09T22:41:30.291Z,3.50
2022-12-09T22:43:58.057Z,3.35
2022-12-09T22:46:30.529Z,3.15
2022-12-09T22:49:02.267Z,3.50
2022-12-09T22:51:31.935Z,3.45
2022-12-09T22:54:01.222Z,3.53
2022-12-09T22:56:28.839Z,3.35
2022-12-09T22:58:56.597Z,3.60
2022-12-09T23:01:33.003Z,3.20
2022-12-09T23:04:01.209Z,3.22
2022-12-09T23:06:29.568Z,3.42
2022-12-09T23:08:57.869Z,3.20
2022-12-09T23:11:27.135Z,3.60
2022-12-09T23:13:55.157Z,3.10
2022-12-09T23:16:24.622Z,3.40
2022-12-09T23:18:54.551Z,3.38
2022-12-09T23:21:26.035Z,3.60
2022-12-09T23:23:55.406Z,3.40
2022-12-09T23:26:25.938Z,3.08
2022-12-09T23:28:56.178Z,3.80
2022-12-09T23:31:30.945Z,3.33
2022-12-09T23:33:58.992Z,3.47
2022-12-09T23:36:31.179Z,3.40
2022-12-09T23:38:59.704Z,3.47
2022-12-09T23:41:27.746Z,3.72
2022-12-09T23:43:55.498Z,3.42
2022-12-09T23:46:26.358Z,3.60
2022-12-09T23:48:55.415Z,3.70
2022-12-09T23:51:28.787Z,3.38
2022-12-09T23:54:03.839Z,3.70
2022-12-09T23:56:34.823Z,3.25
2022-12-09T23:59:08.867Z,3.38
